sensor_id;sensor_type;location;lat;lon;timestamp;temperature;humidity
10344;DHT22;5217;43.960;10.954;2023-08-06T00:01:53;22.10;99.90
10344;DHT22;5217;43.960;10.954;2023-08-06T00:04:21;22.10;99.90
10344;DHT22;5217;43.960;10.954;2023-08-06T00:06:51;22.10;99.90
10344;DHT22;5217;43.960;10.954;2023-08-06T00:09:20;22.10;99.90
10344;DHT22;5217;43.960;10.954;2023-08-06T00:11:48;22.10;99.90
10344;DHT22;5217;43.960;10.954;2023-08-06T00:14:17;22.10;99.90
10344;DHT22;5217;43.960;10.954;2023-08-06T00:16:45;22.00;99.90
10344;DHT22;5217;43.960;10.954;2023-08-06T00:19:13;22.00;99.90
10344;DHT22;5217;43.960;10.954;2023-08-06T00:21:42;22.00;99.90
10344;DHT22;5217;43.960;10.954;2023-08-06T00:24:12;22.00;99.90
10344;DHT22;5217;43.960;10.954;2023-08-06T00:26:40;22.00;99.90
10344;DHT22;5217;43.960;10.954;2023-08-06T00:29:09;22.00;99.90
10344;DHT22;5217;43.960;10.954;2023-08-06T00:31:37;22.00;99.90
10344;DHT22;5217;43.960;10.954;2023-08-06T00:34:05;21.90;99.90
10344;DHT22;5217;43.960;10.954;2023-08-06T00:36:34;21.90;99.90
10344;DHT22;5217;43.960;10.954;2023-08-06T00:39:02;21.90;99.90
10344;DHT22;5217;43.960;10.954;2023-08-06T00:41:32;21.90;99.90
10344;DHT22;5217;43.960;10.954;2023-08-06T00:44:00;21.90;99.90
10344;DHT22;5217;43.960;10.954;2023-08-06T00:46:30;21.90;99.90
10344;DHT22;5217;43.960;10.954;2023-08-06T00:49:00;21.90;99.90
10344;DHT22;5217;43.960;10.954;2023-08-06T00:51:28;21.90;99.90
10344;DHT22;5217;43.960;10.954;2023-08-06T00:53:56;21.90;99.90
10344;DHT22;5217;43.960;10.954;2023-08-06T00:56:25;21.80;99.90
10344;DHT22;5217;43.960;10.954;2023-08-06T00:58:55;21.80;99.90
10344;DHT22;5217;43.960;10.954;2023-08-06T01:01:23;21.80;99.90
10344;DHT22;5217;43.960;10.954;2023-08-06T01:03:53;21.80;99.90
10344;DHT22;5217;43.960;10.954;2023-08-06T01:06:32;21.80;99.90
10344;DHT22;5217;43.960;10.954;2023-08-06T01:09:08;21.80;99.90
10344;DHT22;5217;43.960;10.954;2023-08-06T01:11:44;21.80;99.90
10344;DHT22;5217;43.960;10.954;2023-08-06T01:14:26;21.80;99.90
10344;DHT22;5217;43.960;10.954;2023-08-06T01:16:58;21.80;99.90
10344;DHT22;5217;43.960;10.954;2023-08-06T01:19:27;21.80;99.90
10344;DHT22;5217;43.960;10.954;2023-08-06T01:21:57;21.70;99.90
10344;DHT22;5217;43.960;10.954;2023-08-06T01:24:25;21.70;99.90
10344;DHT22;5217;43.960;10.954;2023-08-06T01:27:00;21.70;99.90
10344;DHT22;5217;43.960;10.954;2023-08-06T01:29:35;21.70;99.90
10344;DHT22;5217;43.960;10.954;2023-08-06T01:32:09;21.70;99.90
10344;DHT22;5217;43.960;10.954;2023-08-06T01:34:40;21.70;99.90
10344;DHT22;5217;43.960;10.954;2023-08-06T01:37:16;21.70;99.90
10344;DHT22;5217;43.960;10.954;2023-08-06T01:39:45;21.70;99.90
10344;DHT22;5217;43.960;10.954;2023-08-06T01:42:13;21.70;99.90
10344;DHT22;5217;43.960;10.954;2023-08-06T01:44:42;21.70;99.90
10344;DHT22;5217;43.960;10.954;2023-08-06T01:47:10;21.70;99.90
10344;DHT22;5217;43.960;10.954;2023-08-06T01:49:39;21.70;99.90
10344;DHT22;5217;43.960;10.954;2023-08-06T01:52:07;21.60;99.90
10344;DHT22;5217;43.960;10.954;2023-08-06T01:54:37;21.70;99.90
10344;DHT22;5217;43.960;10.954;2023-08-06T01:57:06;21.60;99.90
10344;DHT22;5217;43.960;10.954;2023-08-06T01:59:34;21.60;99.90
10344;DHT22;5217;43.960;10.954;2023-08-06T02:02:03;21.60;99.90
10344;DHT22;5217;43.960;10.954;2023-08-06T02:04:32;21.60;99.90
10344;DHT22;5217;43.960;10.954;2023-08-06T02:07:00;21.60;99.90
10344;DHT22;5217;43.960;10.954;2023-08-06T02:09:28;21.60;99.90
10344;DHT22;5217;43.960;10.954;2023-08-06T02:11:58;21.60;99.90
10344;DHT22;5217;43.960;10.954;2023-08-06T02:14:26;21.60;99.90
10344;DHT22;5217;43.960;10.954;2023-08-06T02:16:55;21.60;99.90
10344;DHT22;5217;43.960;10.954;2023-08-06T02:19:23;21.50;99.90
10344;DHT22;5217;43.960;10.954;2023-08-06T02:21:51;21.50;99.90
10344;DHT22;5217;43.960;10.954;2023-08-06T02:24:20;21.50;99.90
10344;DHT22;5217;43.960;10.954;2023-08-06T02:26:48;21.50;99.90
10344;DHT22;5217;43.960;10.954;2023-08-06T02:29:19;21.50;99.90
10344;DHT22;5217;43.960;10.954;2023-08-06T02:31:48;21.50;99.90
10344;DHT22;5217;43.960;10.954;2023-08-06T02:34:17;21.50;99.90
10344;DHT22;5217;43.960;10.954;2023-08-06T02:36:45;21.40;99.90
10344;DHT22;5217;43.960;10.954;2023-08-06T02:39:24;21.40;99.90
10344;DHT22;5217;43.960;10.954;2023-08-06T02:41:52;21.50;99.90
10344;DHT22;5217;43.960;10.954;2023-08-06T02:44:23;21.40;99.90
10344;DHT22;5217;43.960;10.954;2023-08-06T02:46:51;21.40;99.90
10344;DHT22;5217;43.960;10.954;2023-08-06T02:49:19;21.40;99.90
10344;DHT22;5217;43.960;10.954;2023-08-06T02:51:48;21.40;99.90
10344;DHT22;5217;43.960;10.954;2023-08-06T02:54:17;21.40;99.90
10344;DHT22;5217;43.960;10.954;2023-08-06T02:56:46;21.40;99.90
10344;DHT22;5217;43.960;10.954;2023-08-06T02:59:14;21.40;99.90
10344;DHT22;5217;43.960;10.954;2023-08-06T03:01:44;21.40;99.90
10344;DHT22;5217;43.960;10.954;2023-08-06T03:04:12;21.30;99.90
10344;DHT22;5217;43.960;10.954;2023-08-06T03:06:41;21.30;99.90
10344;DHT22;5217;43.960;10.954;2023-08-06T03:09:09;21.40;99.90
10344;DHT22;5217;43.960;10.954;2023-08-06T03:11:37;21.30;99.90
10344;DHT22;5217;43.960;10.954;2023-08-06T03:14:06;21.30;99.90
10344;DHT22;5217;43.960;10.954;2023-08-06T03:16:34;21.30;99.90
10344;DHT22;5217;43.960;10.954;2023-08-06T03:19:04;21.30;99.90
10344;DHT22;5217;43.960;10.954;2023-08-06T03:21:33;21.30;99.90
10344;DHT22;5217;43.960;10.954;2023-08-06T03:24:01;21.30;99.90
10344;DHT22;5217;43.960;10.954;2023-08-06T03:26:29;21.30;99.90
10344;DHT22;5217;43.960;10.954;2023-08-06T03:28:58;21.30;99.90
10344;DHT22;5217;43.960;10.954;2023-08-06T03:31:26;21.30;99.90
10344;DHT22;5217;43.960;10.954;2023-08-06T03:33:55;21.30;99.90
10344;DHT22;5217;43.960;10.954;2023-08-06T03:36:25;21.30;99.90
10344;DHT22;5217;43.960;10.954;2023-08-06T03:38:54;21.20;99.90
10344;DHT22;5217;43.960;10.954;2023-08-06T03:41:22;21.20;99.90
10344;DHT22;5217;43.960;10.954;2023-08-06T03:43:51;21.20;99.90
10344;DHT22;5217;43.960;10.954;2023-08-06T03:46:19;21.20;99.90
10344;DHT22;5217;43.960;10.954;2023-08-06T03:48:47;21.20;99.90
10344;DHT22;5217;43.960;10.954;2023-08-06T03:51:16;21.20;99.90
10344;DHT22;5217;43.960;10.954;2023-08-06T03:53:45;21.20;99.90
10344;DHT22;5217;43.960;10.954;2023-08-06T03:56:14;21.20;99.90
10344;DHT22;5217;43.960;10.954;2023-08-06T03:58:42;21.20;99.90
10344;DHT22;5217;43.960;10.954;2023-08-06T04:01:11;21.20;99.90
10344;DHT22;5217;43.960;10.954;2023-08-06T04:03:39;21.20;99.90
10344;DHT22;5217;43.960;10.954;2023-08-06T04:06:08;21.20;99.90
10344;DHT22;5217;43.960;10.954;2023-08-06T04:08:36;21.20;99.90
10344;DHT22;5217;43.960;10.954;2023-08-06T04:11:06;21.20;99.90
10344;DHT22;5217;43.960;10.954;2023-08-06T04:13:35;21.20;99.90
10344;DHT22;5217;43.960;10.954;2023-08-06T04:16:04;21.20;99.90
10344;DHT22;5217;43.960;10.954;2023-08-06T04:18:32;21.20;99.90
10344;DHT22;5217;43.960;10.954;2023-08-06T04:21:02;21.20;99.90
10344;DHT22;5217;43.960;10.954;2023-08-06T04:23:30;21.20;99.90
10344;DHT22;5217;43.960;10.954;2023-08-06T04:25:58;21.10;99.90
10344;DHT22;5217;43.960;10.954;2023-08-06T04:28:28;21.20;99.90
10344;DHT22;5217;43.960;10.954;2023-08-06T04:30:58;21.10;99.90
10344;DHT22;5217;43.960;10.954;2023-08-06T04:33:27;21.20;99.90
10344;DHT22;5217;43.960;10.954;2023-08-06T04:35:55;21.20;99.90
10344;DHT22;5217;43.960;10.954;2023-08-06T04:38:24;21.10;99.90
10344;DHT22;5217;43.960;10.954;2023-08-06T04:40:53;21.10;99.90
10344;DHT22;5217;43.960;10.954;2023-08-06T04:43:22;21.10;99.90
10344;DHT22;5217;43.960;10.954;2023-08-06T04:45:53;21.10;99.90
10344;DHT22;5217;43.960;10.954;2023-08-06T04:48:22;21.10;99.90
10344;DHT22;5217;43.960;10.954;2023-08-06T04:50:51;21.20;99.90
10344;DHT22;5217;43.960;10.954;2023-08-06T04:53:19;21.10;99.90
10344;DHT22;5217;43.960;10.954;2023-08-06T04:55:47;21.10;99.90
10344;DHT22;5217;43.960;10.954;2023-08-06T04:58:16;21.10;99.90
10344;DHT22;5217;43.960;10.954;2023-08-06T05:00:44;21.20;99.90
10344;DHT22;5217;43.960;10.954;2023-08-06T05:03:14;21.10;99.90
10344;DHT22;5217;43.960;10.954;2023-08-06T05:05:42;21.10;99.90
10344;DHT22;5217;43.960;10.954;2023-08-06T05:08:14;21.10;99.90
10344;DHT22;5217;43.960;10.954;2023-08-06T05:10:44;21.20;99.90
10344;DHT22;5217;43.960;10.954;2023-08-06T05:13:13;21.10;99.90
10344;DHT22;5217;43.960;10.954;2023-08-06T05:15:41;21.10;99.90
10344;DHT22;5217;43.960;10.954;2023-08-06T05:18:13;21.20;99.90
10344;DHT22;5217;43.960;10.954;2023-08-06T05:20:42;21.10;99.90
10344;DHT22;5217;43.960;10.954;2023-08-06T05:23:11;21.10;99.90
10344;DHT22;5217;43.960;10.954;2023-08-06T05:25:39;21.20;99.90
10344;DHT22;5217;43.960;10.954;2023-08-06T05:28:08;21.20;99.90
10344;DHT22;5217;43.960;10.954;2023-08-06T05:30:39;21.20;99.90
10344;DHT22;5217;43.960;10.954;2023-08-06T05:33:08;21.10;99.90
10344;DHT22;5217;43.960;10.954;2023-08-06T05:35:37;21.10;99.90
10344;DHT22;5217;43.960;10.954;2023-08-06T05:38:06;21.10;99.90
10344;DHT22;5217;43.960;10.954;2023-08-06T05:40:35;21.10;99.90
10344;DHT22;5217;43.960;10.954;2023-08-06T05:43:03;21.10;99.90
10344;DHT22;5217;43.960;10.954;2023-08-06T05:45:32;21.10;99.90
10344;DHT22;5217;43.960;10.954;2023-08-06T05:48:00;21.20;99.90
10344;DHT22;5217;43.960;10.954;2023-08-06T05:50:29;21.10;99.90
10344;DHT22;5217;43.960;10.954;2023-08-06T05:52:59;21.20;99.90
10344;DHT22;5217;43.960;10.954;2023-08-06T05:55:28;21.20;99.90
10344;DHT22;5217;43.960;10.954;2023-08-06T05:57:56;21.20;99.90
10344;DHT22;5217;43.960;10.954;2023-08-06T06:00:25;21.20;99.90
10344;DHT22;5217;43.960;10.954;2023-08-06T06:02:53;21.20;99.90
10344;DHT22;5217;43.960;10.954;2023-08-06T06:05:22;21.20;99.90
10344;DHT22;5217;43.960;10.954;2023-08-06T06:08:17;21.20;99.90
10344;DHT22;5217;43.960;10.954;2023-08-06T06:10:45;21.20;99.90
10344;DHT22;5217;43.960;10.954;2023-08-06T06:13:14;21.30;99.90
10344;DHT22;5217;43.960;10.954;2023-08-06T06:15:42;21.30;99.90
10344;DHT22;5217;43.960;10.954;2023-08-06T06:18:10;21.20;99.90
10344;DHT22;5217;43.960;10.954;2023-08-06T06:20:39;21.20;99.90
10344;DHT22;5217;43.960;10.954;2023-08-06T06:23:07;21.20;99.90
10344;DHT22;5217;43.960;10.954;2023-08-06T06:25:42;21.20;99.90
10344;DHT22;5217;43.960;10.954;2023-08-06T06:28:10;21.30;99.90
10344;DHT22;5217;43.960;10.954;2023-08-06T06:30:39;21.30;99.90
10344;DHT22;5217;43.960;10.954;2023-08-06T06:33:08;21.30;99.90
10344;DHT22;5217;43.960;10.954;2023-08-06T06:35:37;21.30;99.90
10344;DHT22;5217;43.960;10.954;2023-08-06T06:38:05;21.30;99.90
10344;DHT22;5217;43.960;10.954;2023-08-06T06:40:34;21.30;99.90
10344;DHT22;5217;43.960;10.954;2023-08-06T06:43:54;21.40;99.90
10344;DHT22;5217;43.960;10.954;2023-08-06T06:46:26;21.40;99.90
10344;DHT22;5217;43.960;10.954;2023-08-06T06:48:54;21.40;99.90
10344;DHT22;5217;43.960;10.954;2023-08-06T06:51:23;21.40;99.90
10344;DHT22;5217;43.960;10.954;2023-08-06T06:53:51;21.40;99.90
10344;DHT22;5217;43.960;10.954;2023-08-06T06:56:19;21.50;99.90
10344;DHT22;5217;43.960;10.954;2023-08-06T06:58:48;21.40;99.90
10344;DHT22;5217;43.960;10.954;2023-08-06T07:01:18;21.40;99.90
10344;DHT22;5217;43.960;10.954;2023-08-06T07:03:46;21.50;99.90
10344;DHT22;5217;43.960;10.954;2023-08-06T07:06:15;21.50;99.90
10344;DHT22;5217;43.960;10.954;2023-08-06T07:08:45;21.50;99.90
10344;DHT22;5217;43.960;10.954;2023-08-06T07:11:13;21.60;99.90
10344;DHT22;5217;43.960;10.954;2023-08-06T07:13:42;21.60;99.90
10344;DHT22;5217;43.960;10.954;2023-08-06T07:16:10;21.60;99.90
10344;DHT22;5217;43.960;10.954;2023-08-06T07:18:40;21.70;99.90
10344;DHT22;5217;43.960;10.954;2023-08-06T07:21:09;21.70;99.90
10344;DHT22;5217;43.960;10.954;2023-08-06T07:23:37;21.70;99.90
10344;DHT22;5217;43.960;10.954;2023-08-06T07:26:06;21.70;99.90
10344;DHT22;5217;43.960;10.954;2023-08-06T07:28:34;21.70;99.90
10344;DHT22;5217;43.960;10.954;2023-08-06T07:31:03;21.70;99.90
10344;DHT22;5217;43.960;10.954;2023-08-06T07:33:35;21.70;99.90
10344;DHT22;5217;43.960;10.954;2023-08-06T07:36:09;21.70;99.90
10344;DHT22;5217;43.960;10.954;2023-08-06T07:38:38;21.70;99.90
10344;DHT22;5217;43.960;10.954;2023-08-06T07:41:07;21.70;99.90
10344;DHT22;5217;43.960;10.954;2023-08-06T07:43:35;21.70;99.90
10344;DHT22;5217;43.960;10.954;2023-08-06T07:46:04;21.80;99.90
10344;DHT22;5217;43.960;10.954;2023-08-06T07:48:55;21.80;99.90
10344;DHT22;5217;43.960;10.954;2023-08-06T07:51:42;21.80;99.90
10344;DHT22;5217;43.960;10.954;2023-08-06T07:54:10;21.80;99.90
10344;DHT22;5217;43.960;10.954;2023-08-06T07:56:38;21.90;99.90
10344;DHT22;5217;43.960;10.954;2023-08-06T07:59:07;21.90;99.90
10344;DHT22;5217;43.960;10.954;2023-08-06T08:01:36;21.90;99.90
10344;DHT22;5217;43.960;10.954;2023-08-06T08:04:04;21.90;99.90
10344;DHT22;5217;43.960;10.954;2023-08-06T08:06:33;22.00;99.90
10344;DHT22;5217;43.960;10.954;2023-08-06T08:09:03;22.00;99.90
10344;DHT22;5217;43.960;10.954;2023-08-06T08:11:31;22.10;99.90
10344;DHT22;5217;43.960;10.954;2023-08-06T08:14:00;22.10;99.90
10344;DHT22;5217;43.960;10.954;2023-08-06T08:16:28;22.10;99.90
10344;DHT22;5217;43.960;10.954;2023-08-06T08:18:57;22.10;99.90
10344;DHT22;5217;43.960;10.954;2023-08-06T08:21:25;22.20;99.90
10344;DHT22;5217;43.960;10.954;2023-08-06T08:23:54;22.20;99.90
10344;DHT22;5217;43.960;10.954;2023-08-06T08:26:24;22.20;99.90
10344;DHT22;5217;43.960;10.954;2023-08-06T08:28:54;22.20;99.90
10344;DHT22;5217;43.960;10.954;2023-08-06T08:31:22;22.20;99.90
10344;DHT22;5217;43.960;10.954;2023-08-06T08:33:51;22.30;99.90
10344;DHT22;5217;43.960;10.954;2023-08-06T08:36:21;22.30;99.90
10344;DHT22;5217;43.960;10.954;2023-08-06T08:38:50;22.30;99.90
10344;DHT22;5217;43.960;10.954;2023-08-06T08:45:35;22.40;99.90
10344;DHT22;5217;43.960;10.954;2023-08-06T08:48:07;22.40;99.90
10344;DHT22;5217;43.960;10.954;2023-08-06T08:50:36;22.40;99.90
10344;DHT22;5217;43.960;10.954;2023-08-06T08:53:05;22.40;99.90
10344;DHT22;5217;43.960;10.954;2023-08-06T08:55:33;22.40;99.90
10344;DHT22;5217;43.960;10.954;2023-08-06T08:58:02;22.40;99.90
10344;DHT22;5217;43.960;10.954;2023-08-06T09:00:30;22.50;99.90
10344;DHT22;5217;43.960;10.954;2023-08-06T09:03:01;22.50;99.90
10344;DHT22;5217;43.960;10.954;2023-08-06T09:05:30;22.50;99.90
10344;DHT22;5217;43.960;10.954;2023-08-06T09:08:02;22.50;99.90
10344;DHT22;5217;43.960;10.954;2023-08-06T09:10:31;22.60;99.90
10344;DHT22;5217;43.960;10.954;2023-08-06T09:13:00;22.60;99.90
10344;DHT22;5217;43.960;10.954;2023-08-06T09:15:29;22.60;99.90
10344;DHT22;5217;43.960;10.954;2023-08-06T09:17:59;22.60;99.90
10344;DHT22;5217;43.960;10.954;2023-08-06T09:20:28;22.70;99.90
10344;DHT22;5217;43.960;10.954;2023-08-06T09:23:07;22.70;99.90
10344;DHT22;5217;43.960;10.954;2023-08-06T09:25:38;22.70;99.90
10344;DHT22;5217;43.960;10.954;2023-08-06T09:28:07;22.80;99.90
10344;DHT22;5217;43.960;10.954;2023-08-06T09:30:36;22.70;99.90
10344;DHT22;5217;43.960;10.954;2023-08-06T09:33:09;22.70;99.90
10344;DHT22;5217;43.960;10.954;2023-08-06T09:35:38;22.70;99.90
10344;DHT22;5217;43.960;10.954;2023-08-06T09:38:07;22.80;99.90
10344;DHT22;5217;43.960;10.954;2023-08-06T09:40:39;22.80;99.90
10344;DHT22;5217;43.960;10.954;2023-08-06T09:43:07;22.80;99.90
10344;DHT22;5217;43.960;10.954;2023-08-06T09:45:37;22.90;99.90
10344;DHT22;5217;43.960;10.954;2023-08-06T09:48:07;22.90;99.90
10344;DHT22;5217;43.960;10.954;2023-08-06T09:50:38;22.90;99.90
10344;DHT22;5217;43.960;10.954;2023-08-06T09:53:08;22.90;99.90
10344;DHT22;5217;43.960;10.954;2023-08-06T09:55:36;23.00;99.90
10344;DHT22;5217;43.960;10.954;2023-08-06T09:58:05;23.00;99.90
10344;DHT22;5217;43.960;10.954;2023-08-06T10:00:34;23.00;99.90
10344;DHT22;5217;43.960;10.954;2023-08-06T10:03:06;23.00;99.90
10344;DHT22;5217;43.960;10.954;2023-08-06T10:05:38;23.10;99.90
10344;DHT22;5217;43.960;10.954;2023-08-06T10:08:07;23.10;99.90
10344;DHT22;5217;43.960;10.954;2023-08-06T10:10:35;23.10;99.90
10344;DHT22;5217;43.960;10.954;2023-08-06T10:13:06;23.10;99.90
10344;DHT22;5217;43.960;10.954;2023-08-06T10:15:35;23.10;99.90
10344;DHT22;5217;43.960;10.954;2023-08-06T10:18:06;23.20;99.90
10344;DHT22;5217;43.960;10.954;2023-08-06T10:20:35;23.20;99.90
10344;DHT22;5217;43.960;10.954;2023-08-06T10:23:05;23.20;99.90
10344;DHT22;5217;43.960;10.954;2023-08-06T10:25:35;23.20;99.90
10344;DHT22;5217;43.960;10.954;2023-08-06T10:28:08;23.20;99.90
10344;DHT22;5217;43.960;10.954;2023-08-06T10:30:44;23.30;99.90
10344;DHT22;5217;43.960;10.954;2023-08-06T10:33:13;23.30;99.90
10344;DHT22;5217;43.960;10.954;2023-08-06T10:35:45;23.30;99.90
10344;DHT22;5217;43.960;10.954;2023-08-06T10:38:19;23.30;99.90
10344;DHT22;5217;43.960;10.954;2023-08-06T10:40:52;23.40;99.90
10344;DHT22;5217;43.960;10.954;2023-08-06T10:43:29;23.40;99.90
10344;DHT22;5217;43.960;10.954;2023-08-06T10:45:59;23.40;99.90
10344;DHT22;5217;43.960;10.954;2023-08-06T10:48:33;23.40;99.90
10344;DHT22;5217;43.960;10.954;2023-08-06T10:51:02;23.40;99.90
10344;DHT22;5217;43.960;10.954;2023-08-06T10:53:32;23.50;99.90
10344;DHT22;5217;43.960;10.954;2023-08-06T10:56:01;23.50;99.90
10344;DHT22;5217;43.960;10.954;2023-08-06T10:58:32;23.50;99.90
10344;DHT22;5217;43.960;10.954;2023-08-06T11:01:01;23.50;99.90
10344;DHT22;5217;43.960;10.954;2023-08-06T11:03:30;23.50;99.90
10344;DHT22;5217;43.960;10.954;2023-08-06T11:05:59;23.60;99.90
10344;DHT22;5217;43.960;10.954;2023-08-06T11:08:32;23.50;99.90
10344;DHT22;5217;43.960;10.954;2023-08-06T11:11:08;23.50;99.90
10344;DHT22;5217;43.960;10.954;2023-08-06T11:13:38;23.60;99.90
10344;DHT22;5217;43.960;10.954;2023-08-06T11:16:06;23.60;99.90
10344;DHT22;5217;43.960;10.954;2023-08-06T11:18:35;23.60;99.90
10344;DHT22;5217;43.960;10.954;2023-08-06T11:21:04;23.60;99.90
10344;DHT22;5217;43.960;10.954;2023-08-06T11:23:34;23.60;99.90
10344;DHT22;5217;43.960;10.954;2023-08-06T11:26:03;23.70;99.90
10344;DHT22;5217;43.960;10.954;2023-08-06T11:28:31;23.70;99.90
10344;DHT22;5217;43.960;10.954;2023-08-06T11:30:59;23.80;99.90
10344;DHT22;5217;43.960;10.954;2023-08-06T11:33:30;23.80;99.90
10344;DHT22;5217;43.960;10.954;2023-08-06T11:35:59;23.80;99.90
10344;DHT22;5217;43.960;10.954;2023-08-06T11:38:29;23.90;99.90
10344;DHT22;5217;43.960;10.954;2023-08-06T11:40:59;23.90;99.90
10344;DHT22;5217;43.960;10.954;2023-08-06T11:43:30;24.00;99.90
10344;DHT22;5217;43.960;10.954;2023-08-06T11:45:59;24.00;99.90
10344;DHT22;5217;43.960;10.954;2023-08-06T11:48:28;24.00;99.90
10344;DHT22;5217;43.960;10.954;2023-08-06T11:50:56;24.10;99.90
10344;DHT22;5217;43.960;10.954;2023-08-06T11:53:27;24.10;99.90
10344;DHT22;5217;43.960;10.954;2023-08-06T11:55:59;24.10;99.90
10344;DHT22;5217;43.960;10.954;2023-08-06T11:58:29;24.10;99.90
10344;DHT22;5217;43.960;10.954;2023-08-06T12:00:58;24.20;99.90
10344;DHT22;5217;43.960;10.954;2023-08-06T12:03:26;24.20;99.90
10344;DHT22;5217;43.960;10.954;2023-08-06T12:05:57;24.20;99.90
10344;DHT22;5217;43.960;10.954;2023-08-06T12:08:26;24.30;99.90
10344;DHT22;5217;43.960;10.954;2023-08-06T12:10:55;24.30;99.90
10344;DHT22;5217;43.960;10.954;2023-08-06T12:13:25;24.30;99.90
10344;DHT22;5217;43.960;10.954;2023-08-06T12:15:54;24.30;99.90
10344;DHT22;5217;43.960;10.954;2023-08-06T12:18:24;24.30;99.90
10344;DHT22;5217;43.960;10.954;2023-08-06T12:20:52;24.30;99.90
10344;DHT22;5217;43.960;10.954;2023-08-06T12:23:21;24.30;99.90
10344;DHT22;5217;43.960;10.954;2023-08-06T12:25:49;24.30;99.90
10344;DHT22;5217;43.960;10.954;2023-08-06T12:28:17;24.30;99.90
10344;DHT22;5217;43.960;10.954;2023-08-06T12:30:50;24.40;99.90
10344;DHT22;5217;43.960;10.954;2023-08-06T12:33:22;24.40;99.90
10344;DHT22;5217;43.960;10.954;2023-08-06T12:35:50;24.40;99.90
10344;DHT22;5217;43.960;10.954;2023-08-06T12:38:21;24.40;99.90
10344;DHT22;5217;43.960;10.954;2023-08-06T12:40:49;24.50;99.90
10344;DHT22;5217;43.960;10.954;2023-08-06T12:43:18;24.50;99.90
10344;DHT22;5217;43.960;10.954;2023-08-06T12:45:46;24.50;99.90
10344;DHT22;5217;43.960;10.954;2023-08-06T12:48:17;24.60;99.90
10344;DHT22;5217;43.960;10.954;2023-08-06T12:50:46;24.60;99.90
10344;DHT22;5217;43.960;10.954;2023-08-06T12:53:16;24.60;99.90
10344;DHT22;5217;43.960;10.954;2023-08-06T12:55:44;24.70;99.90
10344;DHT22;5217;43.960;10.954;2023-08-06T12:58:13;24.70;99.90
10344;DHT22;5217;43.960;10.954;2023-08-06T13:00:44;24.70;99.90
10344;DHT22;5217;43.960;10.954;2023-08-06T13:03:13;24.70;99.90
10344;DHT22;5217;43.960;10.954;2023-08-06T13:05:43;24.70;99.90
10344;DHT22;5217;43.960;10.954;2023-08-06T13:08:12;24.70;99.90
10344;DHT22;5217;43.960;10.954;2023-08-06T13:10:40;24.70;99.90
10344;DHT22;5217;43.960;10.954;2023-08-06T13:13:08;24.70;99.90
10344;DHT22;5217;43.960;10.954;2023-08-06T13:15:38;24.70;99.90
10344;DHT22;5217;43.960;10.954;2023-08-06T13:18:06;24.70;99.90
10344;DHT22;5217;43.960;10.954;2023-08-06T13:20:37;24.80;99.90
10344;DHT22;5217;43.960;10.954;2023-08-06T13:23:07;24.80;99.90
10344;DHT22;5217;43.960;10.954;2023-08-06T13:25:35;24.80;99.90
10344;DHT22;5217;43.960;10.954;2023-08-06T13:28:06;24.90;99.90
10344;DHT22;5217;43.960;10.954;2023-08-06T13:30:34;24.90;99.90
10344;DHT22;5217;43.960;10.954;2023-08-06T13:33:09;25.00;99.90
10344;DHT22;5217;43.960;10.954;2023-08-06T13:35:37;25.00;99.90
10344;DHT22;5217;43.960;10.954;2023-08-06T13:38:07;25.00;99.90
10344;DHT22;5217;43.960;10.954;2023-08-06T13:40:36;25.00;99.90
10344;DHT22;5217;43.960;10.954;2023-08-06T13:43:04;25.10;99.90
10344;DHT22;5217;43.960;10.954;2023-08-06T13:45:32;25.10;99.90
10344;DHT22;5217;43.960;10.954;2023-08-06T13:48:02;25.10;99.90
10344;DHT22;5217;43.960;10.954;2023-08-06T13:50:31;25.20;99.90
10344;DHT22;5217;43.960;10.954;2023-08-06T13:53:00;25.20;99.90
10344;DHT22;5217;43.960;10.954;2023-08-06T13:55:30;25.20;99.90
10344;DHT22;5217;43.960;10.954;2023-08-06T13:57:59;25.30;99.90
10344;DHT22;5217;43.960;10.954;2023-08-06T14:00:27;25.30;99.90
10344;DHT22;5217;43.960;10.954;2023-08-06T14:02:55;25.30;99.90
10344;DHT22;5217;43.960;10.954;2023-08-06T14:05:24;25.30;99.90
10344;DHT22;5217;43.960;10.954;2023-08-06T14:07:53;25.40;99.90
10344;DHT22;5217;43.960;10.954;2023-08-06T14:10:21;25.40;99.90
10344;DHT22;5217;43.960;10.954;2023-08-06T14:12:51;25.40;99.90
10344;DHT22;5217;43.960;10.954;2023-08-06T14:15:35;25.40;99.90
10344;DHT22;5217;43.960;10.954;2023-08-06T14:18:03;25.40;99.90
10344;DHT22;5217;43.960;10.954;2023-08-06T14:20:32;25.40;99.90
10344;DHT22;5217;43.960;10.954;2023-08-06T14:23:00;25.40;99.90
10344;DHT22;5217;43.960;10.954;2023-08-06T14:25:28;25.40;99.90
10344;DHT22;5217;43.960;10.954;2023-08-06T14:27:58;25.40;99.90
10344;DHT22;5217;43.960;10.954;2023-08-06T14:30:27;25.40;99.90
10344;DHT22;5217;43.960;10.954;2023-08-06T14:32:55;25.40;99.90
10344;DHT22;5217;43.960;10.954;2023-08-06T14:35:32;25.40;99.90
10344;DHT22;5217;43.960;10.954;2023-08-06T14:38:00;25.40;99.90
10344;DHT22;5217;43.960;10.954;2023-08-06T14:40:30;25.40;99.90
10344;DHT22;5217;43.960;10.954;2023-08-06T14:43:03;25.40;99.90
10344;DHT22;5217;43.960;10.954;2023-08-06T14:45:31;25.40;99.90
10344;DHT22;5217;43.960;10.954;2023-08-06T14:48:00;25.40;99.90
10344;DHT22;5217;43.960;10.954;2023-08-06T14:50:28;25.40;99.90
10344;DHT22;5217;43.960;10.954;2023-08-06T14:52:56;25.40;99.90
10344;DHT22;5217;43.960;10.954;2023-08-06T14:55:31;25.40;99.90
10344;DHT22;5217;43.960;10.954;2023-08-06T14:58:01;25.40;99.90
10344;DHT22;5217;43.960;10.954;2023-08-06T15:00:30;25.40;99.90
10344;DHT22;5217;43.960;10.954;2023-08-06T15:02:59;25.40;99.90
10344;DHT22;5217;43.960;10.954;2023-08-06T15:05:28;25.40;99.90
10344;DHT22;5217;43.960;10.954;2023-08-06T15:07:56;25.40;99.90
10344;DHT22;5217;43.960;10.954;2023-08-06T15:10:24;25.40;99.90
10344;DHT22;5217;43.960;10.954;2023-08-06T15:12:54;25.40;99.90
10344;DHT22;5217;43.960;10.954;2023-08-06T15:15:22;25.40;99.90
10344;DHT22;5217;43.960;10.954;2023-08-06T15:17:52;25.40;99.90
10344;DHT22;5217;43.960;10.954;2023-08-06T15:20:22;25.40;99.90
10344;DHT22;5217;43.960;10.954;2023-08-06T15:22:51;25.30;99.90
10344;DHT22;5217;43.960;10.954;2023-08-06T15:25:19;25.30;99.90
10344;DHT22;5217;43.960;10.954;2023-08-06T15:27:47;25.30;99.90
10344;DHT22;5217;43.960;10.954;2023-08-06T15:30:16;25.30;99.90
10344;DHT22;5217;43.960;10.954;2023-08-06T15:32:45;25.30;99.90
10344;DHT22;5217;43.960;10.954;2023-08-06T15:35:15;25.30;99.90
10344;DHT22;5217;43.960;10.954;2023-08-06T15:37:44;25.30;99.90
10344;DHT22;5217;43.960;10.954;2023-08-06T15:40:12;25.30;99.90
10344;DHT22;5217;43.960;10.954;2023-08-06T15:42:41;25.30;99.90
10344;DHT22;5217;43.960;10.954;2023-08-06T15:45:10;25.30;99.90
10344;DHT22;5217;43.960;10.954;2023-08-06T15:47:38;25.30;99.90
10344;DHT22;5217;43.960;10.954;2023-08-06T15:50:08;25.30;99.90